Ahtari, Finland

5:00 PM EEST on July 23, 2014 (GMT +0300)
Lehtimaki (ILNSISUO23) Elev 669 ft | 62.82 °N, 23.95 °E | Change Station

Current weather conditions updated 9 seconds ago

Clear
Clear
87.6 °F
Feels Like 88 °F
N
2.2
Wind Variable Wind from NNW
Gusts 5.8 mph

Tomorrow is forecast to be Cooler than today.

Today
High -- | Low -- °F
--% Chance of Precip.
Yesterday
High -- | Low -- °F
Precip. -- in
4:19 AM 10:37 PM
Waning Crescent, 10% visible
Pressure 30.18 in
Visibility -9999.0 miles
Clouds
Heat Index 88 °F
Dew Point 61 °F
Humidity 41%
Rainfall 0.00 in
Snow Depth Not available.
UV Not available.
Pollen Not available.
Air Quality Not available.
Flu Activity Not available.
METAR EFSI 231350Z AUTO VRB04KT CAVOK 30/14 Q1022

More Conditions Fewer Conditions

Pressure 30.18 in
Visibility -9999.0 miles
Clouds
Heat Index 88 °F
Dew Point 61 °F
Humidity 41%
Rainfall 0.00 in
Snow Depth Not available.
UV Not available.
Pollen Not available.
Air Quality Not available.
Flu Activity Not available.
METAR EFSI 231350Z AUTO VRB04KT CAVOK 30/14 Q1022

More Conditions Fewer Conditions

10-Day Weather Forecast

Almanac

Astronomy

Jul. 23, 2014 Rise Set
Actual Time 4:19 AM EEST 10:37 PM EEST
Civil Twilight 2:45 AM EEST 12:09 AM EEST
Nautical Twilight Sun does not rise Sun does not rise
Astronomical Twilight Sun does not rise Sun does not rise
Moon 1:38 AM EEST 7:39 PM EEST
Length of Visible Light 21h 24m
Length of Day
18h 18m
Tomorrow will be 5m 20s shorter.
Waning Crescent, 10% of the Moon is Illuminated
Today
Waning Crescent
Jul 26
New
Aug 3
First Quarter
Aug 10
Full
Aug 17
Last Quarter

Yesterday's Extremes

Country Highs Country Lows

Community

WunderPhotos

Upload Photos

1,736,602 photos uploaded!

Nearby

Snow Depth

Not available.

Earthquake Activity

City Distance Mag. Time & Date
No recent earthquake activity has been reported nearby.
Minimum magnitude displayed is 2.5.

Coastal Water Temperatures

Place Temperature
No Stations Reporting

Nearby Weather Stations

Station Location Temp. Heat Index Dew Point Humidity Wind Precip. Elev Updated Type
Lehtimaki, Alajarvi 87.6 °F 88 °F 61 °F 41% NNW  at  2.2 mph 0.00 in / hr 669 ft 5:00 PM EEST Rapid Fire
Keuruu SEIPONMÄKI 86.4 °F 86 °F 59 °F 40% NNW  at  0.7 mph 0.00 in / hr 387 ft 4:59 PM EEST Normal

Show More Stations Show Fewer Stations